createdAt,value
2018-06-20T00:00:20.625Z,34.00
2018-06-20T00:02:48.979Z,36.37
2018-06-20T00:05:17.280Z,39.13
2018-06-20T00:07:45.753Z,35.60
2018-06-20T00:10:14.104Z,39.37
2018-06-20T00:12:42.147Z,36.37
2018-06-20T00:15:10.458Z,36.70
2018-06-20T00:17:38.840Z,35.20
2018-06-20T00:20:07.168Z,37.60
2018-06-20T00:22:35.489Z,36.87
2018-06-20T00:25:03.853Z,34.50
2018-06-20T00:27:32.176Z,35.77
2018-06-20T00:30:00.184Z,35.60
2018-06-20T00:32:28.492Z,35.17
2018-06-20T00:34:56.872Z,34.30
2018-06-20T00:37:25.223Z,35.13
2018-06-20T00:39:53.528Z,35.23
2018-06-20T00:42:21.862Z,34.53
2018-06-20T00:44:51.070Z,37.90
2018-06-20T00:47:19.386Z,38.97
2018-06-20T00:49:47.788Z,36.57
2018-06-20T00:52:16.103Z,32.10
2018-06-20T00:54:44.155Z,32.83
2018-06-20T00:57:12.435Z,32.83
2018-06-20T00:59:40.756Z,31.93
2018-06-20T01:02:09.046Z,34.30
2018-06-20T01:04:37.387Z,30.17
2018-06-20T01:07:05.680Z,29.63
2018-06-20T01:09:33.979Z,29.53
2018-06-20T01:12:02.286Z,28.87
2018-06-20T01:14:30.635Z,28.50
2018-06-20T01:16:58.984Z,27.03
2018-06-20T01:19:27.321Z,25.67
2018-06-20T01:21:55.628Z,24.40
2018-06-20T01:24:23.932Z,24.40
2018-06-20T01:26:52.253Z,29.07
2018-06-20T01:29:20.557Z,24.33
2018-06-20T01:31:48.993Z,21.63
2018-06-20T01:34:17.296Z,24.53
2018-06-20T01:36:45.611Z,22.23
2018-06-20T01:39:13.954Z,22.40
2018-06-20T01:41:42.275Z,20.50
2018-06-20T01:44:10.560Z,19.63
2018-06-20T01:46:38.909Z,18.20
2018-06-20T01:49:07.270Z,17.83
2018-06-20T01:51:35.605Z,18.53
2018-06-20T01:54:03.957Z,19.60
2018-06-20T01:56:32.257Z,17.93
2018-06-20T01:59:00.567Z,18.23
2018-06-20T02:01:28.893Z,15.53
2018-06-20T02:03:57.254Z,16.33
2018-06-20T02:06:25.548Z,17.23
2018-06-20T02:08:59.640Z,16.97
2018-06-20T02:11:29.754Z,15.80
2018-06-20T02:13:58.080Z,16.47
2018-06-20T02:16:26.409Z,15.87
2018-06-20T02:18:54.723Z,15.23
2018-06-20T02:21:23.002Z,14.57
2018-06-20T02:23:51.291Z,14.90
2018-06-20T02:26:19.609Z,14.37
2018-06-20T02:28:47.928Z,14.70
2018-06-20T02:31:16.257Z,14.17
2018-06-20T02:33:45.272Z,13.07
2018-06-20T02:36:19.388Z,14.30
2018-06-20T02:38:49.617Z,13.47
2018-06-20T02:41:18.547Z,12.97
2018-06-20T02:43:47.609Z,12.63
2018-06-20T02:46:16.556Z,13.47
2018-06-20T02:48:45.476Z,12.53
2018-06-20T02:51:14.121Z,11.97
2018-06-20T02:53:43.166Z,13.23
2018-06-20T02:56:12.124Z,12.80
2018-06-20T02:58:40.755Z,11.70
2018-06-20T03:01:09.087Z,13.27
2018-06-20T03:03:37.423Z,12.37
2018-06-20T03:06:05.748Z,11.70
2018-06-20T03:08:34.087Z,10.87
2018-06-20T03:11:02.414Z,11.73
2018-06-20T03:13:30.760Z,11.73
2018-06-20T03:15:59.073Z,10.70
2018-06-20T03:18:27.561Z,11.07
2018-06-20T03:20:55.937Z,13.37
2018-06-20T03:23:24.284Z,10.73
2018-06-20T03:25:52.575Z,10.73
2018-06-20T03:28:20.931Z,9.90
2018-06-20T03:30:49.234Z,10.73
2018-06-20T03:33:17.573Z,10.47
2018-06-20T03:35:45.884Z,10.10
2018-06-20T03:38:14.212Z,10.57
2018-06-20T03:40:42.532Z,12.70
2018-06-20T03:43:10.850Z,11.80
2018-06-20T03:45:39.144Z,11.23
2018-06-20T03:48:07.439Z,10.00
2018-06-20T03:50:35.708Z,10.87
2018-06-20T03:53:04.025Z,10.13
2018-06-20T03:55:32.325Z,10.57
2018-06-20T03:58:00.637Z,10.37
2018-06-20T04:00:28.912Z,11.93
2018-06-20T04:02:57.225Z,11.63
2018-06-20T04:05:28.064Z,10.63
2018-06-20T04:07:56.421Z,11.63
2018-06-20T04:10:24.718Z,10.40
2018-06-20T04:12:53.024Z,11.00
2018-06-20T04:15:21.383Z,12.03
2018-06-20T04:17:49.706Z,11.20
2018-06-20T04:20:17.775Z,11.17
2018-06-20T04:22:46.074Z,11.73
2018-06-20T04:25:14.347Z,11.87
2018-06-20T04:27:42.709Z,12.73
2018-06-20T04:30:11.029Z,11.53
2018-06-20T04:32:39.349Z,11.53
2018-06-20T04:35:07.885Z,11.73
2018-06-20T04:37:36.712Z,12.23
2018-06-20T04:40:05.019Z,13.17
2018-06-20T04:42:33.389Z,13.13
2018-06-20T04:45:01.696Z,13.50
2018-06-20T04:47:29.991Z,12.77
2018-06-20T04:49:58.341Z,12.67
2018-06-20T04:52:26.742Z,13.23
2018-06-20T04:54:55.021Z,13.60
2018-06-20T04:57:23.330Z,12.93
2018-06-20T04:59:51.654Z,14.07
2018-06-20T05:02:19.969Z,14.97
2018-06-20T05:04:48.276Z,14.57
2018-06-20T05:07:16.591Z,14.20
2018-06-20T05:09:44.867Z,13.93
2018-06-20T05:12:13.196Z,13.20
2018-06-20T05:14:41.486Z,14.80
2018-06-20T05:17:09.827Z,13.60
2018-06-20T05:19:38.132Z,13.43
2018-06-20T05:22:06.464Z,15.03
2018-06-20T05:24:34.799Z,14.40
2018-06-20T05:27:03.117Z,14.13
2018-06-20T05:29:31.455Z,14.00
2018-06-20T05:31:59.835Z,15.23
2018-06-20T05:34:28.180Z,14.47
2018-06-20T05:36:56.480Z,14.00
2018-06-20T05:39:24.851Z,14.47
2018-06-20T05:41:53.195Z,12.97
2018-06-20T05:44:21.545Z,14.03
2018-06-20T05:46:49.890Z,14.63
2018-06-20T05:49:18.259Z,17.97
2018-06-20T05:51:46.652Z,14.00
2018-06-20T05:54:15.060Z,14.67
2018-06-20T05:56:43.406Z,13.43
2018-06-20T05:59:11.763Z,13.43
2018-06-20T06:01:39.836Z,13.90
2018-06-20T06:04:08.209Z,13.87
2018-06-20T06:06:36.594Z,14.47
2018-06-20T06:09:07.294Z,13.50
2018-06-20T06:11:35.630Z,13.30
2018-06-20T06:14:04.041Z,12.93
2018-06-20T06:16:42.798Z,13.13
2018-06-20T06:19:11.205Z,13.73
2018-06-20T06:21:39.574Z,13.43
2018-06-20T06:24:07.939Z,12.93
2018-06-20T06:26:36.268Z,12.70
2018-06-20T06:29:04.882Z,13.83
2018-06-20T06:31:33.734Z,11.87
2018-06-20T06:34:02.164Z,13.40
2018-06-20T06:36:30.813Z,11.10
2018-06-20T06:38:59.220Z,12.27
2018-06-20T06:41:27.827Z,12.33
2018-06-20T06:43:56.514Z,15.73
2018-06-20T06:46:24.879Z,12.27
2018-06-20T06:48:53.348Z,12.80
2018-06-20T06:51:21.818Z,14.07
2018-06-20T06:53:50.299Z,14.47
2018-06-20T06:56:18.764Z,15.40
2018-06-20T06:58:47.153Z,16.23
2018-06-20T07:01:15.650Z,14.70
2018-06-20T07:03:44.021Z,14.37
2018-06-20T07:06:12.491Z,16.07
2018-06-20T07:08:40.944Z,15.20
2018-06-20T07:11:09.639Z,15.87
2018-06-20T07:13:38.069Z,15.50
2018-06-20T07:16:06.436Z,17.03
2018-06-20T07:18:34.859Z,15.97
2018-06-20T07:21:02.931Z,16.13
2018-06-20T07:23:34.599Z,17.53
2018-06-20T07:26:02.984Z,16.80
2018-06-20T07:28:31.385Z,17.40
2018-06-20T07:30:59.823Z,17.00
2018-06-20T07:33:28.308Z,16.80
2018-06-20T07:35:56.768Z,16.93
2018-06-20T07:38:25.139Z,17.07
2018-06-20T07:40:53.570Z,16.63
2018-06-20T07:43:22.068Z,18.70
2018-06-20T07:45:51.329Z,15.60
2018-06-20T07:48:20.205Z,15.20
2018-06-20T07:50:48.728Z,13.10
2018-06-20T07:53:17.094Z,12.27
2018-06-20T07:55:45.477Z,11.67
2018-06-20T07:58:19.209Z,10.90
2018-06-20T08:00:52.996Z,10.60
2018-06-20T08:03:26.600Z,10.67
2018-06-20T08:06:00.388Z,9.57
2018-06-20T08:08:34.097Z,9.87
2018-06-20T08:11:07.838Z,9.37
2018-06-20T08:13:41.444Z,9.63
2018-06-20T08:16:15.175Z,9.33
2018-06-20T08:18:48.875Z,10.07
2018-06-20T08:21:17.427Z,11.53
2018-06-20T08:23:45.808Z,9.97
2018-06-20T08:26:17.913Z,9.50
2018-06-20T08:28:46.266Z,9.93
2018-06-20T08:31:14.728Z,10.50
2018-06-20T08:33:43.161Z,10.50
2018-06-20T08:36:11.758Z,10.23
2018-06-20T08:38:40.085Z,10.83
2018-06-20T08:41:08.466Z,11.27
2018-06-20T08:43:36.850Z,11.57
2018-06-20T08:46:05.256Z,12.00
2018-06-20T08:48:33.476Z,12.60
2018-06-20T08:51:01.962Z,14.37
2018-06-20T08:53:30.325Z,17.50
2018-06-20T08:55:58.744Z,16.67
2018-06-20T08:58:27.091Z,17.83
2018-06-20T09:01:02.279Z,18.63
2018-06-20T09:03:30.769Z,20.43
2018-06-20T09:06:04.264Z,23.77
2018-06-20T09:08:37.956Z,22.80
2018-06-20T09:11:11.638Z,24.00
2018-06-20T09:13:41.330Z,22.10
2018-06-20T09:16:15.108Z,22.90
2018-06-20T09:18:48.858Z,25.00
2018-06-20T09:21:17.270Z,26.00
2018-06-20T09:23:45.656Z,23.97
2018-06-20T09:27:43.506Z,27.13
2018-06-20T09:30:16.653Z,28.53
2018-06-20T09:32:45.053Z,27.27
2018-06-20T09:35:15.123Z,28.60
2018-06-20T09:37:44.129Z,28.13
2018-06-20T09:40:13.196Z,27.13
2018-06-20T09:42:41.674Z,29.10
2018-06-20T09:45:10.034Z,29.70
2018-06-20T09:47:38.701Z,26.73
2018-06-20T09:50:12.596Z,25.70
2018-06-20T09:52:44.128Z,24.60
2018-06-20T09:55:12.523Z,24.30
2018-06-20T09:57:40.925Z,24.90
2018-06-20T10:02:23.226Z,24.23
2018-06-20T10:04:57.079Z,25.23
2018-06-20T10:07:30.824Z,22.23
2018-06-20T10:10:04.757Z,23.40
2018-06-20T10:12:55.116Z,21.10
2018-06-20T10:15:23.477Z,20.93
2018-06-20T10:17:51.881Z,22.03
2018-06-20T10:20:25.660Z,21.33
2018-06-20T10:22:54.320Z,21.30
2018-06-20T10:25:22.739Z,23.13
2018-06-20T10:27:51.052Z,19.20
2018-06-20T10:30:19.578Z,21.70
2018-06-20T10:32:49.335Z,22.17
2018-06-20T10:35:18.117Z,18.97
2018-06-20T10:37:46.705Z,17.17
2018-06-20T10:40:16.476Z,18.33
2018-06-20T10:42:45.066Z,19.47
2018-06-20T10:45:19.373Z,16.87
2018-06-20T10:47:49.009Z,14.73
2018-06-20T10:50:17.733Z,16.13
2018-06-20T10:52:46.149Z,15.87
2018-06-20T10:55:15.838Z,18.00
2018-06-20T10:57:50.587Z,19.20
2018-06-20T11:00:24.266Z,17.17
2018-06-20T11:02:58.245Z,15.93
2018-06-20T11:05:32.283Z,15.50
2018-06-20T11:08:06.147Z,18.63
2018-06-20T11:10:39.734Z,21.43
2018-06-20T11:13:12.776Z,18.83
2018-06-20T11:15:41.194Z,21.43
2018-06-20T11:18:09.528Z,18.77
2018-06-20T11:20:43.433Z,22.20
2018-06-20T11:23:11.992Z,20.90
2018-06-20T11:25:40.370Z,20.10
2018-06-20T11:28:13.722Z,20.83
2018-06-20T11:30:43.437Z,19.60
2018-06-20T11:33:15.469Z,17.63
2018-06-20T11:35:44.121Z,17.57
2018-06-20T11:38:12.572Z,18.40
2018-06-20T11:40:41.040Z,16.93
2018-06-20T11:43:09.507Z,17.23
2018-06-20T11:45:43.390Z,20.03
2018-06-20T11:48:11.470Z,17.10
2018-06-20T11:50:39.612Z,19.47
2018-06-20T11:53:09.245Z,19.43
2018-06-20T11:55:39.784Z,23.27
2018-06-20T11:58:13.882Z,19.97
2018-06-20T12:00:47.510Z,19.50
2018-06-20T12:03:21.218Z,18.53
2018-06-20T12:05:54.960Z,22.90
2018-06-20T12:08:28.761Z,21.07
2018-06-20T12:11:02.916Z,21.90
2018-06-20T12:13:36.605Z,26.03
2018-06-20T12:16:10.417Z,26.90
2018-06-20T12:18:44.157Z,28.80
2018-06-20T12:21:17.928Z,31.03
2018-06-20T12:23:52.088Z,30.07
2018-06-20T12:26:25.954Z,30.27
2018-06-20T12:29:00.475Z,28.07
2018-06-20T12:31:34.190Z,28.23
2018-06-20T12:34:08.023Z,28.50
2018-06-20T12:36:42.027Z,27.43
2018-06-20T12:39:10.060Z,29.87
2018-06-20T12:41:43.757Z,27.63
2018-06-20T12:45:20.218Z,29.33
2018-06-20T12:47:50.188Z,27.13
2018-06-20T12:50:20.680Z,25.87
2018-06-20T12:52:49.856Z,25.17
2018-06-20T12:55:18.331Z,27.80
2018-06-20T12:57:46.835Z,27.07
2018-06-20T13:00:15.542Z,25.60
2018-06-20T13:02:44.223Z,22.27
2018-06-20T13:05:14.745Z,25.27
2018-06-20T13:07:43.115Z,27.03
2018-06-20T13:10:11.575Z,25.30
2018-06-20T13:12:40.335Z,23.30
2018-06-20T13:15:08.757Z,23.90
2018-06-20T13:17:39.042Z,24.47
2018-06-20T13:20:07.461Z,28.70
2018-06-20T13:22:36.197Z,25.17
2018-06-20T13:25:04.643Z,23.57
2018-06-20T13:27:38.473Z,21.13
2018-06-20T13:30:09.817Z,20.17
2018-06-20T13:32:43.650Z,18.47
2018-06-20T13:35:17.469Z,16.57
2018-06-20T13:37:56.955Z,16.57
2018-06-20T13:40:30.740Z,15.93
2018-06-20T13:43:04.676Z,13.20
2018-06-20T13:45:38.317Z,12.20
2018-06-20T13:48:12.193Z,10.17
2018-06-20T13:50:40.616Z,13.00
2018-06-20T13:53:09.104Z,10.27
2018-06-20T13:55:37.540Z,9.60
2018-06-20T13:58:16.200Z,10.57
2018-06-20T14:00:44.589Z,7.57
2018-06-20T14:03:12.689Z,7.73
2018-06-20T14:05:41.069Z,8.30
2018-06-20T14:08:09.445Z,7.77
2018-06-20T14:10:37.502Z,7.33
2018-06-20T14:13:05.836Z,5.80
2018-06-20T14:15:34.203Z,5.17
2018-06-20T14:18:02.600Z,6.70
2018-06-20T14:20:43.736Z,7.53
2018-06-20T14:23:12.540Z,11.17
2018-06-20T14:25:41.271Z,12.20
2018-06-20T14:28:09.705Z,11.67
2018-06-20T14:30:43.379Z,13.40
2018-06-20T14:33:16.958Z,12.27
2018-06-20T14:35:50.697Z,11.37
2018-06-20T14:38:24.381Z,11.53
2018-06-20T14:40:59.141Z,6.43
2018-06-20T14:43:32.877Z,8.03
2018-06-20T14:46:06.541Z,8.70
2018-06-20T14:48:34.949Z,8.03
2018-06-20T14:51:03.324Z,10.37
2018-06-20T14:53:31.783Z,9.30
2018-06-20T14:56:00.272Z,9.57
2018-06-20T14:58:28.674Z,11.57
2018-06-20T15:00:58.678Z,12.73
2018-06-20T15:03:27.076Z,10.57
2018-06-20T15:07:24.882Z,10.03
2018-06-20T15:09:53.381Z,6.57
2018-06-20T15:12:21.779Z,8.27
2018-06-20T15:14:50.242Z,8.90
2018-06-20T15:17:26.586Z,7.47
2018-06-20T15:19:55.285Z,7.23
2018-06-20T15:22:25.752Z,7.03
2018-06-20T15:24:54.140Z,6.43
2018-06-20T15:27:27.964Z,5.37
2018-06-20T15:30:01.457Z,8.23
2018-06-20T15:32:35.170Z,11.50
2018-06-20T15:35:08.934Z,5.33
2018-06-20T15:37:42.814Z,6.27
2018-06-20T15:40:11.384Z,7.27
2018-06-20T15:42:52.187Z,5.33
2018-06-20T15:45:20.616Z,5.23
2018-06-20T15:47:49.033Z,5.10
2018-06-20T15:50:17.549Z,5.50
2018-06-20T15:52:46.076Z,3.80
2018-06-20T15:55:14.483Z,6.83
2018-06-20T15:57:42.999Z,5.50
2018-06-20T16:00:11.513Z,5.10
2018-06-20T16:02:40.203Z,3.20
2018-06-20T16:05:08.698Z,2.60
2018-06-20T16:07:37.379Z,2.47
2018-06-20T16:10:06.958Z,5.03
2018-06-20T16:12:35.347Z,7.93
2018-06-20T16:15:03.464Z,3.80
2018-06-20T16:17:32.378Z,3.60
2018-06-20T16:20:06.309Z,3.00
2018-06-20T16:22:40.305Z,6.33
2018-06-20T16:25:13.966Z,2.70
2018-06-20T16:27:47.718Z,3.83
2018-06-20T16:30:21.691Z,6.07
2018-06-20T16:32:50.144Z,4.67
2018-06-20T16:35:18.632Z,3.60
2018-06-20T16:37:47.218Z,5.53
2018-06-20T16:40:15.574Z,4.97
2018-06-20T16:42:43.950Z,5.20
2018-06-20T16:45:13.936Z,5.60
2018-06-20T16:47:42.452Z,4.63
2018-06-20T16:50:10.861Z,7.17
2018-06-20T16:52:39.592Z,7.43
2018-06-20T16:55:07.946Z,5.77
2018-06-20T16:57:36.373Z,5.17
2018-06-20T17:00:05.346Z,11.53
2018-06-20T17:02:35.343Z,5.93
2018-06-20T17:05:03.451Z,6.07
2018-06-20T17:07:33.165Z,6.83
2018-06-20T17:10:01.552Z,4.87
2018-06-20T17:12:35.354Z,5.20
2018-06-20T17:15:09.485Z,6.53
2018-06-20T17:17:43.367Z,6.23
2018-06-20T17:20:17.125Z,5.87
2018-06-20T17:22:50.825Z,4.23
2018-06-20T17:25:23.868Z,5.47
2018-06-20T17:27:57.808Z,4.70
2018-06-20T17:30:26.268Z,4.73
2018-06-20T17:32:54.743Z,5.67
2018-06-20T17:35:23.140Z,3.87
2018-06-20T17:37:51.553Z,8.10
2018-06-20T17:40:20.069Z,6.30
2018-06-20T17:42:48.495Z,6.27
2018-06-20T17:45:17.167Z,7.90
2018-06-20T17:47:45.705Z,6.67
2018-06-20T17:50:14.178Z,7.20
2018-06-20T17:52:42.551Z,6.30
2018-06-20T17:55:10.927Z,13.20
2018-06-20T17:57:39.510Z,4.27
2018-06-20T18:00:08.086Z,4.23
2018-06-20T18:02:36.485Z,3.60
2018-06-20T18:05:10.286Z,4.63
2018-06-20T18:07:43.854Z,2.87
2018-06-20T18:10:17.519Z,4.50
2018-06-20T18:12:51.404Z,2.97
2018-06-20T18:15:25.280Z,3.87
2018-06-20T18:17:53.652Z,5.83
2018-06-20T18:20:22.057Z,4.17
2018-06-20T18:22:50.418Z,3.20
2018-06-20T18:25:18.465Z,5.30
2018-06-20T18:27:46.802Z,3.97
2018-06-20T18:30:22.913Z,6.93
2018-06-20T18:32:51.314Z,3.73
2018-06-20T18:35:19.685Z,3.60
2018-06-20T18:37:47.794Z,2.97
2018-06-20T18:40:15.984Z,3.07
2018-06-20T18:42:44.366Z,3.43
2018-06-20T18:45:12.779Z,4.93
2018-06-20T18:47:46.314Z,3.77
2018-06-20T18:50:14.741Z,3.60
2018-06-20T18:52:43.209Z,4.80
2018-06-20T18:55:11.703Z,3.57
2018-06-20T18:57:45.266Z,4.37
2018-06-20T19:00:19.044Z,2.83
2018-06-20T19:02:52.792Z,4.73
2018-06-20T19:05:27.245Z,3.17
2018-06-20T19:08:01.028Z,5.63
2018-06-20T19:10:29.479Z,7.83
2018-06-20T19:13:04.526Z,5.10
2018-06-20T19:15:32.875Z,3.63
2018-06-20T19:18:01.252Z,5.67
2018-06-20T19:20:29.639Z,3.73
2018-06-20T19:22:58.924Z,5.20
2018-06-20T19:25:27.279Z,3.03
2018-06-20T19:27:55.659Z,5.00
2018-06-20T19:30:24.061Z,4.30
2018-06-20T19:32:52.494Z,5.10
2018-06-20T19:35:22.597Z,4.17
2018-06-20T19:37:51.299Z,5.73
2018-06-20T19:40:19.752Z,4.27
2018-06-20T19:42:48.436Z,5.23
2018-06-20T19:45:16.796Z,9.57
2018-06-20T19:47:45.167Z,5.03
2018-06-20T19:50:13.593Z,5.13
2018-06-20T19:52:41.968Z,7.67
2018-06-20T19:55:10.338Z,5.00
2018-06-20T19:57:51.920Z,11.00
2018-06-20T20:00:20.336Z,5.30
2018-06-20T20:02:48.712Z,3.70
2018-06-20T20:05:17.113Z,8.80
2018-06-20T20:07:45.504Z,6.63
2018-06-20T20:10:13.829Z,4.33
2018-06-20T20:12:42.055Z,4.67
2018-06-20T20:15:10.722Z,5.80
2018-06-20T20:17:39.253Z,12.63
2018-06-20T20:20:08.204Z,10.00
2018-06-20T20:22:36.564Z,6.37
2018-06-20T20:25:05.336Z,8.33
2018-06-20T20:27:33.756Z,6.30
2018-06-20T20:30:02.153Z,7.10
2018-06-20T20:32:30.561Z,5.33
2018-06-20T20:34:59.088Z,4.83
2018-06-20T20:37:27.480Z,6.30
2018-06-20T20:39:55.867Z,8.83
2018-06-20T20:42:24.573Z,8.33
2018-06-20T20:44:53.469Z,8.00
2018-06-20T20:47:21.946Z,6.60
2018-06-20T20:49:50.401Z,4.97
2018-06-20T20:52:18.806Z,5.67
2018-06-20T20:54:47.179Z,5.50
2018-06-20T20:57:15.268Z,6.23
2018-06-20T20:59:43.636Z,6.37
2018-06-20T21:02:11.785Z,7.23
2018-06-20T21:04:40.730Z,8.97
2018-06-20T21:07:09.197Z,5.13
2018-06-20T21:09:37.594Z,4.90
2018-06-20T21:12:06.037Z,9.20
2018-06-20T21:14:34.423Z,6.47
2018-06-20T21:17:02.901Z,5.73
2018-06-20T21:19:31.331Z,5.40
2018-06-20T21:21:59.752Z,5.47
2018-06-20T21:24:28.082Z,6.60
2018-06-20T21:26:56.457Z,7.53
2018-06-20T21:29:24.547Z,7.83
2018-06-20T21:31:52.941Z,3.17
2018-06-20T21:34:21.392Z,3.83
2018-06-20T21:36:50.195Z,4.80
2018-06-20T21:39:18.367Z,5.30
2018-06-20T21:41:46.492Z,5.23
2018-06-20T21:44:14.792Z,4.43
2018-06-20T21:46:43.417Z,4.17
2018-06-20T21:54:51.620Z,11.40
2018-06-20T21:57:19.975Z,5.47
2018-06-20T21:59:48.361Z,5.23
2018-06-20T22:02:16.743Z,6.33
2018-06-20T22:04:45.065Z,6.63
2018-06-20T22:07:13.415Z,8.00
2018-06-20T22:09:42.509Z,7.57
2018-06-20T22:12:11.125Z,6.27
2018-06-20T22:14:39.424Z,6.73
2018-06-20T22:17:07.814Z,5.77
2018-06-20T22:19:35.874Z,5.40
2018-06-20T22:22:04.436Z,8.53
2018-06-20T22:24:32.764Z,7.17
2018-06-20T22:27:01.097Z,7.93
2018-06-20T22:29:29.407Z,9.50
2018-06-20T22:31:57.760Z,8.70
2018-06-20T22:34:26.128Z,5.63
2018-06-20T22:36:54.464Z,8.47
2018-06-20T22:39:22.674Z,5.90
2018-06-20T22:41:51.026Z,6.57
2018-06-20T22:44:19.430Z,9.57
2018-06-20T22:46:47.793Z,7.83
2018-06-20T22:49:16.136Z,7.13
2018-06-20T22:51:44.502Z,6.33
2018-06-20T22:54:12.853Z,9.73
2018-06-20T22:56:41.234Z,7.37
2018-06-20T22:59:10.332Z,4.87
2018-06-20T23:01:39.536Z,5.53
2018-06-20T23:04:07.966Z,5.67
2018-06-20T23:06:36.471Z,12.77
2018-06-20T23:09:07.600Z,4.60
2018-06-20T23:11:41.346Z,6.97
2018-06-20T23:14:09.536Z,8.67
2018-06-20T23:16:38.006Z,4.63
2018-06-20T23:19:06.834Z,9.23
2018-06-20T23:21:35.447Z,10.50
2018-06-20T23:24:03.883Z,5.63
2018-06-20T23:26:32.355Z,7.43
2018-06-20T23:29:01.072Z,6.47
2018-06-20T23:31:29.529Z,7.87
2018-06-20T23:33:58.341Z,5.20
2018-06-20T23:36:27.067Z,9.43
2018-06-20T23:38:55.624Z,6.20
2018-06-20T23:41:24.033Z,9.40
2018-06-20T23:43:52.931Z,6.77
2018-06-20T23:46:21.298Z,8.33
2018-06-20T23:48:49.788Z,5.57
2018-06-20T23:51:18.226Z,7.50
2018-06-20T23:53:46.691Z,5.80
2018-06-20T23:56:15.400Z,7.37
2018-06-20T23:58:43.809Z,7.73
